x

Boston 16 Nm East Of Boston, Ma (44013) Wave Buoy

12:50 - Sun 20th Aug 2017 All times are EDT. -4 hours from GMT.

  • Sig Wave height 1.0ft
  • Swell Direction
  • Peak Period 7s
  • Average Period 5s
  • Wind
    9mph, 11mph gusts
  • Sea Temp 66°f
  • Luft Temp 69°f
  • Sea Pressure 1010.4mb
  • Boston 16 Nm East Of Boston, Ma
  • Boston 16 Nm East Of Boston, Ma

More Historic Weather Station data

Upgrade to MSW Pro to gain access to the past 30 days of data for over 8000 Wavebouys and Weather Stations around the globe.

Join

Comparision Forecast

View Surf forecast
   
So 08/20 12:50 1ft 7s 5s 9 11 mph 1010.4mb 66f 69f
Sa 08/19 11:50 1.3ft 5s 5s 9 9 mph 1010.3mb 66f 69f
10:50 1.3ft 9s 4s 7 7 mph 1010mb 66f 67f
9:50 1.3ft 6s 4s 7 9 mph 1009.6mb 66f 67f
8:50 1.3ft 5s 4s 7 7 mph 1009.3mb 66f 66f
7:50 1.6ft 6s 4s 7 7 mph 1008.8mb 67f 66f
6:50 1.6ft 6s 4s 7 9 mph 1008.7mb 67f 67f
4:50 1.3ft 8s 5s 9 13 mph 1008.8mb 68f 67f
3:50 1.3ft 8s 4s 9 9 mph 1008.8mb 67f 66f
2:50 1.3ft 8s 4s 9 11 mph 1008.8mb 67f 65f
1:50 1.3ft 4s 4s 9 11 mph 1009.3mb 68f 65f
12:50 1.6ft 4s 4s 2 4 mph 1009.7mb 68f 65f
11:50 1.6ft 4s 4s 2 2 mph 1009.8mb 67f 65f
10:50 1.6ft 4s 4s 4 7 mph 1009.9mb 67f 64f
9:50 2.5ft 6s 4s 9 11 mph 1009.5mb 67f 63f
8:50 2.5ft 6s 4s 11 13 mph 1009.3mb 67f 63f
7:50 2.5ft 3s 4s 16 20 mph 1008.5mb 67f 63f
6:50 2ft 3s 4s 16 18 mph 1008.3mb 67f 64f
5:50 1.6ft 7s 4s 13 13 mph 1007.7mb 67f 65f
3:50 2ft 4s 4s 9 11 mph 1007.3mb 67f 68f
2:50 2ft 4s 4s 9 11 mph 1007.4mb 67f 67f
1:50 2ft 4s 4s 7 9 mph 1007.9mb 67f 68f
12:50 2.5ft 4s 4s 4 4 mph 1008.6mb 67f 69f
Fr 08/18 11:50 2ft 4s 4s 11 11 mph 1009.3mb 67f 69f
10:50 2ft 4s 4s 11 11 mph 1009.2mb 67f 68f
9:50 2.5ft 4s 4s 13 13 mph 1009.2mb 66f 68f
8:50 2.5ft 4s 4s 16 18 mph 1009.5mb 66f 69f
7:50 2.5ft 4s 4s 16 18 mph 1009.6mb 67f 68f
6:50 2.5ft 5s 4s 13 16 mph 1009.9mb 67f 68f
5:50 2ft 4s 4s 13 16 mph 1010mb 67f 69f
4:50 1.6ft 4s 4s 13 16 mph 1010.3mb 68f 69f
3:50 2ft 3s 3s 13 18 mph 1010.7mb 68f 72f
2:50 2.5ft 4s 3s 16 16 mph 1011.2mb 67f 69f
1:50 2.5ft 4s 3s 18 20 mph 1011.6mb 68f 69f
12:50 2ft 3s 3s 16 18 mph 1012.3mb 68f 69f
11:50 1.6ft 3s 3s 16 18 mph 1012.7mb 68f 69f
10:50 1.3ft 3s 3s 16 18 mph 1012.9mb 68f 69f
9:50 1ft 8s 3s 13 16 mph 1013.4mb 68f 68f
8:50 1ft 8s 4s 9 11 mph 1014.3mb 68f 67f
7:50 1ft 9s 5s 7 9 mph 1014.6mb 68f 67f
6:50 1ft 10s 5s 11 11 mph 1014mb 68f 67f
5:50 1ft 9s 5s 11 13 mph 1014.2mb 68f 67f
4:50 1ft 10s 5s 7 9 mph 1014.3mb 68f 66f
3:50 1.3ft 10s 4s 7 9 mph 1014.8mb 68f 66f
2:50 1.3ft 9s 4s 7 9 mph 1015mb 68f 66f
1:50 1.3ft 10s 4s 9 11 mph 1015.3mb 68f 67f
12:50 1.3ft 11s 4s 9 11 mph 1015.5mb 68f 67f
Do 08/17 11:50 1.3ft 12s 4s 11 11 mph 1015.5mb 68f 67f
10:50 1.3ft 11s 4s 11 11 mph 1015.2mb 68f 68f
9:50 1.3ft 9s 4s 4 4 mph 1015.2mb 68f 68f
8:50 1.3ft 13s 4s 7 7 mph 1014.9mb 68f 69f
7:50 1.3ft 13s 5s 9 13 mph 1014.2mb 69f 69f
6:50 1ft 13s 4s 11 13 mph 1014.1mb 69f 70f
5:50 1ft 10s 4s 11 13 mph 1014.3mb 69f 71f
4:50 1ft 8s 6s 11 13 mph 1014.4mb 69f 69f
3:50 1.3ft 11s 6s 9 11 mph 1014.8mb 69f 70f
2:50 1.3ft 11s 6s 4 7 mph 1015.3mb 69f 72f
1:50 1.3ft 11s 6s 7 9 mph 1016mb 69f 71f
12:50 1.3ft 11s 6s 7 9 mph 1016.6mb 68f 69f
11:50 1.3ft 10s 6s 7 9 mph 1017.2mb 68f 68f
10:50 1.3ft 10s 5s 9 11 mph 1017.5mb 68f 67f
9:50 1.6ft 11s 4s 11 13 mph 1017.6mb 67f 67f
8:50 1.6ft 11s 4s 11 13 mph 1017.2mb 67f 66f
7:50 1.6ft 13s 4s 9 11 mph 1017.4mb 67f 65f
6:50 1.6ft 12s 4s 9 9 mph 1017mb 67f 66f
5:50 1.6ft 13s 4s 9 9 mph 1016.6mb 67f 65f
4:50 1.6ft 14s 4s 13 16 mph 1016.2mb 67f 65f
3:50 1.6ft 14s 4s 13 16 mph 1016.2mb 67f 66f
2:50 1.6ft 13s 4s 13 16 mph 1015.9mb 68f 67f
1:50 1.6ft 14s 4s 13 16 mph 1016mb 68f 68f
12:50 1.6ft 13s 4s 13 16 mph 1015.8mb 68f 69f
Mi 08/16 11:50 1.3ft 14s 5s 13 16 mph 1015.5mb 68f 69f
10:50 1.6ft 14s 5s 16 16 mph 1015.3mb 69f 71f
9:50 1.6ft 11s 4s 11 13 mph 1014.8mb 69f 72f
8:50 1.6ft 13s 5s 11 13 mph 1014.2mb 69f 72f
7:50 1.3ft 13s 5s 9 9 mph 1013.5mb 69f 72f
6:50 1.3ft 12s 5s 7 9 mph 1012.6mb 70f 73f
5:50 1.3ft 13s 5s 4 7 mph 1012.2mb 69f 74f
4:50 1.3ft 12s 4s 7 7 mph 1012.3mb 70f 74f
3:50 1.3ft 12s 5s 7 9 mph 1012.5mb 69f 74f
2:50 1.3ft 11s 5s 2 4 mph 1012.9mb 70f 75f
1:50 1.3ft 13s 5s  -  2 mph 1013.3mb 70f 75f
12:50 1.3ft 12s 5s 4 4 mph 1013.2mb 69f 71f
11:50 1ft 10s 5s 7 9 mph 1012.9mb 68f 71f
10:50 1ft 13s 6s 9 11 mph 1012.9mb 68f 70f
9:50 1ft 12s 5s 11 11 mph 1012.9mb 67f 70f
8:50 1ft 12s 5s 9 11 mph 1012.6mb 67f 68f
7:50 1ft 13s 5s 11 11 mph 1012.4mb 67f 67f
6:50 1ft 7s 5s 11 11 mph 1012mb 67f 67f
5:50 1ft 7s 5s 9 11 mph 1011.6mb 67f 66f